Airfield :
LOGIN :

Register | Disclaimer

   EN    FR    IT 

 










Legend :    VFR   Marginal VFR   IFR   Intensive IFR   Very Intensive IFR
Visi :
Ceiling :
>= 8 km
>= 3000ft
5 to 8 km
1000 to 3000 ft
1500m to 5 km
500 to 1000 ft
800 to 1500m
200 to 500 ft
< 800m
< 200 ft
Symbols :   Thunderstorms  Fog  Heavy snow  Heavy precipitations  Wind > 20 kt
SIGMETs :     Misc.  Thunderstorms  Icing  Turbulence  Mountain Waves  Volcanic Ashes






- Airport Elevation : 160 ft
- IATA code : FMO


EDDG - Münster Osnabrück Int.

CURRENT METAR :
  • 061920Z AUTO VRB02KT 1900 0600 R07/1100D BCFG FEW012 01/01 Q1040 TEMPO 0700 FG

EXPIRED METARs :
  • 061850Z AUTO 05003KT 020V080 5000 1800 BR NCD 02/02 Q1040 TEMPO 3000 BR
  • 061820Z AUTO 04003KT 010V110 8000 SCT014 SCT021 02/02 Q1040 TEMPO BKN014
  • 061750Z AUTO 04003KT 6000 FEW015 02/02 Q1040 NOSIG
  • 061720Z AUTO 03003KT 340V110 9999 FEW015 03/02 Q1040 NOSIG
  • 061650Z AUTO VRB01KT 9999 BKN016 BKN033 04/03 Q1040 TEMPO BKN013

TAF AMD TAF EDDG
Valid from the 06 at 19:00 until the 07 at 18:00 UTC


061917Z 0619/0718 VRB03KT 9999 BKN015
TEMPO 0619/0709 3000 BR
PROB30
TEMPO 0619/0707 0700 FZFG



MET'MAP, your aeronautical weather chart ! - Copyright ORBIFLY December 2007 - Disclaimer

ORBIFLY MET'MAP TEAM :

Programming & Development : Alexandra Zaïnal
Original concept : Baudouin d'Aumeries
Technical & hardware support : Manuel Goepfert
Assistance : Marc-Olivier Méhu




SOURCES & CREDITS :

   NOAA